Time;durP1;ratioP1;P1;durP2;ratioP2;P2;SDS_P1;SDS_P2;PMS_P1;PMS_P2;Temp;Humidity;BMP_temperature;BMP_pressure;BME280_temperature;BME280_humidity;BME280_pressure;Samples;Min_cycle;Max_cycle;Signal;HPM_P1;HPM_P2
2023/11/07 00:01:08;;;;;;;2.03;1.30;;;6.90;96.40;;;6.30;100.00;97589.56;4942435;28;20463;-78
2023/11/07 00:03:35;;;;;;;2.17;1.50;;;7.00;96.70;;;6.28;100.00;97580.88;4940962;28;20466;-74
2023/11/07 00:06:03;;;;;;;1.90;1.30;;;7.00;96.50;;;6.32;100.00;97575.97;4946332;28;20469;-74
2023/11/07 00:08:30;;;;;;;2.00;1.33;;;7.10;96.20;;;6.20;100.00;97568.47;4946004;28;20478;-73
2023/11/07 00:10:58;;;;;;;1.90;1.13;;;7.10;95.80;;;6.31;100.00;97582.34;4946903;29;20489;-75
2023/11/07 00:13:26;;;;;;;1.00;1.00;;;7.00;96.00;;;6.31;100.00;97588.53;4946424;28;21033;-73
2023/11/07 00:15:54;;;;;;;1.90;1.20;;;7.00;96.00;;;6.26;100.00;97592.84;4946690;28;20454;-77
2023/11/07 00:18:21;;;;;;;1.63;1.40;;;7.00;96.30;;;6.18;100.00;97581.25;4949048;28;20650;-72
2023/11/07 00:20:48;;;;;;;2.73;1.30;;;7.00;96.30;;;6.14;100.00;97571.97;4945980;28;20458;-75
2023/11/07 00:23:15;;;;;;;2.00;1.40;;;7.00;96.30;;;6.23;100.00;97594.91;4956409;28;20476;-73
2023/11/07 00:25:42;;;;;;;2.03;1.40;;;6.90;96.20;;;6.20;100.00;97587.25;4956773;28;20472;-73
2023/11/07 00:28:10;;;;;;;2.33;1.40;;;6.90;96.40;;;6.21;100.00;97594.28;4946702;28;20458;-72
2023/11/07 00:30:39;;;;;;;1.70;1.60;;;6.90;96.40;;;6.11;100.00;97591.09;4946671;28;20516;-76
2023/11/07 00:33:06;;;;;;;1.67;1.57;;;6.90;96.20;;;6.05;100.00;97595.41;4961817;28;20846;-76
2023/11/07 00:35:33;;;;;;;1.53;1.43;;;6.80;96.70;;;5.78;100.00;97549.63;4947747;28;20562;-72
2023/11/07 00:38:00;;;;;;;1.80;1.00;;;6.80;97.20;;;5.47;100.00;97515.19;4947089;28;21043;-73
2023/11/07 00:40:27;;;;;;;2.90;1.50;;;6.80;97.10;;;5.85;100.00;97567.59;4947108;29;20453;-72
2023/11/07 00:42:55;;;;;;;2.63;1.20;;;6.80;97.50;;;6.00;100.00;97621.16;4948829;28;20459;-73
2023/11/07 00:45:23;;;;;;;1.67;1.17;;;6.80;97.20;;;5.56;100.00;97524.75;4961512;28;20494;-79
2023/11/07 00:47:52;;;;;;;2.60;1.20;;;6.80;97.80;;;5.90;100.00;97590.13;4963896;28;20523;-74
2023/11/07 00:50:20;;;;;;;1.20;1.10;;;6.70;97.40;;;5.90;100.00;97598.16;4946736;28;20576;-73
2023/11/07 00:52:47;;;;;;;2.03;1.63;;;6.70;97.80;;;5.90;100.00;97600.84;4945128;28;20781;-75
2023/11/07 00:55:15;;;;;;;3.90;1.37;;;6.60;97.60;;;5.86;100.00;97596.91;4945425;28;20464;-77
2023/11/07 00:57:42;;;;;;;1.57;1.47;;;6.60;98.60;;;5.91;100.00;97602.50;4946843;28;20461;-72
2023/11/07 01:00:13;;;;;;;1.50;1.20;;;6.60;98.60;;;5.84;100.00;97603.47;4944012;28;20453;-73
2023/11/07 01:02:40;;;;;;;1.90;1.50;;;6.60;98.50;;;5.80;100.00;97616.44;4947884;28;20529;-73
2023/11/07 01:05:10;;;;;;;1.63;1.20;;;6.50;98.60;;;5.65;100.00;97603.97;4958628;28;20459;-75
2023/11/07 01:07:37;;;;;;;2.43;1.40;;;6.40;98.60;;;5.65;100.00;97597.78;4949576;28;20463;-74
2023/11/07 01:10:06;;;;;;;2.10;1.00;;;6.50;99.00;;;5.72;100.00;97613.91;4950718;28;20477;-73
2023/11/07 01:12:33;;;;;;;1.60;1.50;;;6.40;99.20;;;5.64;100.00;97618.38;4952271;28;20461;-75
2023/11/07 01:15:00;;;;;;;1.87;1.40;;;6.40;99.70;;;5.62;100.00;97615.06;4954372;28;20509;-75
2023/11/07 01:17:28;;;;;;;1.90;1.73;;;6.40;99.90;;;5.69;100.00;97628.53;4956029;28;20495;-75
2023/11/07 01:19:55;;;;;;;1.67;1.57;;;6.40;99.90;;;5.64;100.00;97618.38;4952016;29;20455;-74
2023/11/07 01:22:26;;;;;;;1.77;1.53;;;6.30;99.70;;;5.63;100.00;97621.28;4953294;28;20458;-72
2023/11/07 01:24:53;;;;;;;1.40;1.27;;;6.30;99.90;;;5.08;100.00;97550.31;4949172;28;20449;-74
2023/11/07 01:27:24;;;;;;;1.70;1.60;;;6.30;99.90;;;5.25;100.00;97583.00;4947213;28;20445;-71
2023/11/07 01:29:52;;;;;;;1.80;1.70;;;6.30;99.90;;;5.08;100.00;97563.72;4949103;28;20485;-73
2023/11/07 01:32:20;;;;;;;1.47;1.20;;;6.30;99.90;;;5.56;100.00;97626.56;4945360;28;20446;-73
2023/11/07 01:34:48;;;;;;;1.90;1.40;;;6.30;99.90;;;5.48;100.00;97618.66;4947750;29;20451;-79
2023/11/07 01:37:15;;;;;;;1.60;1.50;;;6.20;99.90;;;5.50;100.00;97609.41;4945970;28;20466;-77
2023/11/07 01:39:44;;;;;;;2.37;1.30;;;6.30;99.90;;;5.43;100.00;97615.75;4946498;28;20458;-78
2023/11/07 01:42:12;;;;;;;5.10;1.90;;;6.20;99.90;;;5.60;100.00;97627.84;4961892;28;20517;-78
2023/11/07 01:44:49;;;;;;;1.50;1.40;;;6.30;99.90;;;5.70;100.00;97634.72;4944279;28;20453;-78
2023/11/07 01:47:18;;;;;;;2.27;1.67;;;6.40;99.90;;;5.08;100.00;97528.06;4945457;28;20466;-77
2023/11/07 01:49:47;;;;;;;2.13;1.93;;;6.40;99.90;;;5.76;100.00;97620.53;4950157;28;20478;-79
2023/11/07 01:52:17;;;;;;;1.50;1.40;;;6.50;99.90;;;5.09;100.00;97530.56;4948300;28;20465;-78
2023/11/07 01:54:51;;;;;;;3.93;1.87;;;6.40;99.90;;;5.56;100.00;97598.94;4939476;28;20458;-79
2023/11/07 01:57:19;;;;;;;1.70;1.60;;;6.40;99.90;;;5.56;100.00;97626.56;4945740;28;20481;-79
2023/11/07 01:59:46;;;;;;;1.77;1.57;;;6.30;99.60;;;5.45;100.00;97619.84;4946770;28;20462;-78
2023/11/07 02:02:18;;;;;;;1.67;1.57;;;6.20;99.90;;;5.45;100.00;97619.03;4939796;29;20454;-79
2023/11/07 02:04:46;;;;;;;1.73;1.63;;;6.20;99.90;;;5.48;100.00;97618.66;4946538;28;20927;-76
2023/11/07 02:07:13;;;;;;;1.60;1.40;;;6.20;99.90;;;5.57;100.00;97617.50;4945617;28;20446;-77
2023/11/07 02:09:41;;;;;;;2.50;1.50;;;6.20;99.90;;;5.65;100.00;97622.72;4945388;28;20483;-78
2023/11/07 02:12:10;;;;;;;1.90;1.77;;;6.30;99.90;;;5.56;100.00;97606.97;4945734;28;20524;-78
2023/11/07 02:14:39;;;;;;;2.07;1.60;;;6.30;99.90;;;5.53;100.00;97629.63;4947034;28;20466;-77
2023/11/07 02:17:07;;;;;;;2.20;1.57;;;6.20;99.70;;;5.47;100.00;97623.19;4954215;28;20947;-77
2023/11/07 02:19:34;;;;;;;1.77;1.67;;;6.20;99.90;;;5.43;100.00;97618.41;4944850;29;20474;-78
2023/11/07 02:22:02;;;;;;;4.47;1.70;;;6.20;99.90;;;5.62;100.00;97636.50;4946569;28;20460;-77
2023/11/07 02:24:31;;;;;;;2.20;1.37;;;6.30;99.90;;;5.58;100.00;97624.53;4947286;28;20450;-77
2023/11/07 02:26:59;;;;;;;2.53;1.53;;;6.30;99.90;;;5.67;100.00;97639.44;4948526;28;20472;-78
2023/11/07 02:29:26;;;;;;;1.60;1.50;;;6.40;99.90;;;5.52;100.00;97614.56;4948618;29;20549;-77
2023/11/07 02:31:53;;;;;;;1.97;1.87;;;6.40;99.90;;;5.67;100.00;97622.53;4950169;28;20484;-76
2023/11/07 02:34:22;;;;;;;1.50;1.40;;;6.40;99.90;;;5.56;100.00;97621.22;4948010;28;20461;-76
2023/11/07 02:36:50;;;;;;;1.97;1.60;;;6.30;99.50;;;4.98;100.00;97528.38;4950824;28;20457;-78
2023/11/07 02:39:17;;;;;;;2.80;1.83;;;6.30;99.50;;;5.55;100.00;97630.28;4949330;28;20465;-77
2023/11/07 02:41:47;;;;;;;2.40;1.50;;;6.30;99.30;;;5.54;100.00;97620.59;4944154;28;20453;-79
2023/11/07 02:44:15;;;;;;;1.87;1.77;;;6.30;99.90;;;5.61;100.00;97625.97;4949988;28;20473;-78
2023/11/07 02:46:43;;;;;;;1.47;1.37;;;6.30;99.90;;;5.24;100.00;97554.56;4948059;29;20453;-81
2023/11/07 02:49:10;;;;;;;1.60;1.50;;;6.40;99.90;;;5.66;100.00;97621.69;4943191;29;20473;-79
2023/11/07 02:51:38;;;;;;;1.80;1.70;;;6.40;99.80;;;5.54;100.00;97628.63;4947118;28;20942;-79
2023/11/07 02:54:06;;;;;;;2.00;1.80;;;6.30;99.30;;;5.44;100.00;97599.44;4944198;28;20445;-80
2023/11/07 02:56:33;;;;;;;1.87;1.77;;;6.30;99.60;;;5.22;100.00;97579.88;4947093;28;20458;-79
2023/11/07 02:59:02;;;;;;;1.60;1.50;;;6.30;99.30;;;5.41;100.00;97628.50;4947689;29;20545;-80
2023/11/07 03:01:31;;;;;;;1.63;1.50;;;6.30;99.40;;;5.47;100.00;97622.34;4947120;28;20458;-79
2023/11/07 03:03:58;;;;;;;1.43;1.33;;;6.30;99.60;;;5.31;100.00;97618.91;4963279;28;20516;-80
2023/11/07 03:06:26;;;;;;;2.20;1.70;;;6.20;99.50;;;5.40;100.00;97627.66;4947401;28;20497;-80
2023/11/07 03:08:53;;;;;;;1.80;1.60;;;6.20;99.80;;;5.16;100.00;97581.50;4946819;28;20461;-78
2023/11/07 03:11:21;;;;;;;2.10;1.87;;;6.20;99.90;;;5.24;100.00;97607.31;4948216;28;20460;-79
2023/11/07 03:13:48;;;;;;;1.90;1.80;;;6.10;99.90;;;5.30;100.00;97606.53;4949326;29;20469;-78
2023/11/07 03:16:17;;;;;;;2.10;1.77;;;6.20;99.90;;;5.39;100.00;97618.81;4946876;29;20462;-79
2023/11/07 03:18:44;;;;;;;2.80;1.80;;;6.10;99.80;;;5.27;100.00;97596.22;4947734;28;20465;-78
2023/11/07 03:21:12;;;;;;;2.10;1.90;;;6.10;99.90;;;5.33;100.00;97624.91;4948515;28;20512;-79
2023/11/07 03:23:40;;;;;;;2.10;1.90;;;6.10;99.90;;;5.39;100.00;97610.78;4947147;28;20941;-78
2023/11/07 03:26:07;;;;;;;1.70;1.60;;;6.10;99.90;;;5.27;100.00;97601.59;4942675;28;21367;-79
2023/11/07 03:28:35;;;;;;;2.70;2.10;;;6.10;99.90;;;5.34;100.00;97617.72;4946200;28;20473;-78
2023/11/07 03:31:04;;;;;;;3.53;1.93;;;6.10;99.90;;;5.43;100.00;97626.44;4946177;29;20482;-79
2023/11/07 03:33:33;;;;;;;1.80;1.70;;;6.10;99.90;;;5.38;100.00;97625.19;4946726;29;20458;-80
2023/11/07 03:36:03;;;;;;;2.17;1.97;;;6.20;99.90;;;5.37;100.00;97623.50;4944737;28;21199;-78
2023/11/07 03:38:31;;;;;;;2.43;2.23;;;6.10;99.90;;;5.33;100.00;97622.22;4948342;28;20446;-80
2023/11/07 03:40:59;;;;;;;2.80;1.90;;;6.10;99.90;;;4.90;100.00;97549.91;4946474;29;20464;-79
2023/11/07 03:43:26;;;;;;;2.40;1.90;;;6.10;99.90;;;5.36;100.00;97634.44;4943245;28;20462;-78
2023/11/07 03:45:53;;;;;;;3.70;1.70;;;6.10;99.90;;;5.34;100.00;97625.75;4934324;28;20792;-80
2023/11/07 03:48:20;;;;;;;2.63;2.10;;;6.10;99.90;;;5.35;100.00;97633.59;4951621;28;20461;-78
2023/11/07 03:50:53;;;;;;;2.57;1.97;;;6.10;99.90;;;5.32;100.00;97635.84;4946797;29;20855;-80
2023/11/07 03:53:20;;;;;;;2.17;2.00;;;6.10;99.90;;;5.41;100.00;97644.56;4959027;28;20553;-77
2023/11/07 03:55:48;;;;;;;2.47;1.77;;;6.10;99.90;;;5.29;100.00;97642.41;4945049;29;20454;-79
2023/11/07 03:58:16;;;;;;;1.97;1.77;;;6.00;99.90;;;5.23;100.00;97638.63;4945288;28;20461;-79
2023/11/07 04:00:43;;;;;;;2.30;1.80;;;5.90;99.90;;;5.26;100.00;97648.16;4946614;28;20505;-78
2023/11/07 04:03:13;;;;;;;4.97;2.00;;;5.90;99.90;;;4.88;100.00;97609.00;4947185;28;21126;-79
2023/11/07 04:05:41;;;;;;;2.03;1.90;;;5.80;99.90;;;5.08;100.00;97645.88;4946983;29;20465;-79
2023/11/07 04:08:10;;;;;;;2.33;1.53;;;5.80;99.90;;;5.03;100.00;97649.13;4943302;28;20577;-78
2023/11/07 04:10:37;;;;;;;2.33;1.80;;;5.70;99.90;;;5.03;100.00;97648.31;4947199;28;20539;-78
2023/11/07 04:13:05;;;;;;;2.20;1.80;;;5.70;99.90;;;5.09;100.00;97636.81;4962413;28;20458;-79
2023/11/07 04:15:33;;;;;;;1.70;1.60;;;5.80;99.90;;;5.06;100.00;97640.69;4947304;28;20449;-79
2023/11/07 04:18:03;;;;;;;3.10;2.20;;;5.80;99.90;;;5.12;100.00;97641.78;4948825;28;20512;-81
2023/11/07 04:20:33;;;;;;;2.37;2.00;;;5.90;99.90;;;4.88;100.00;97614.38;4948561;28;20465;-79
2023/11/07 04:23:01;;;;;;;2.17;2.00;;;5.80;99.90;;;4.77;100.00;97610.31;4942038;28;20477;-80
2023/11/07 04:25:30;;;;;;;2.53;1.50;;;5.70;99.90;;;5.03;100.00;97643.75;4946172;28;20816;-79
2023/11/07 04:27:57;;;;;;;2.40;1.90;;;5.80;99.90;;;4.45;100.00;97553.53;4951071;28;20464;-81
2023/11/07 04:30:25;;;;;;;2.90;2.30;;;5.80;99.90;;;5.00;100.00;97643.31;4965901;28;20990;-79
2023/11/07 04:32:52;;;;;;;2.97;1.80;;;5.70;99.90;;;4.86;100.00;97643.19;4949914;28;20454;-79
2023/11/07 04:35:20;;;;;;;3.30;2.33;;;5.60;99.90;;;4.82;100.00;97625.81;4939228;29;20484;-81
2023/11/07 04:37:47;;;;;;;1.50;1.40;;;5.60;99.90;;;4.94;100.00;97628.84;4946404;28;20462;-77
2023/11/07 04:40:16;;;;;;;2.00;1.70;;;5.70;99.90;;;5.00;100.00;97644.16;4961403;28;20545;-78
2023/11/07 04:42:44;;;;;;;4.80;2.70;;;5.70;99.90;;;4.93;100.00;97653.97;4948562;28;20489;-77
2023/11/07 04:45:12;;;;;;;3.07;1.70;;;5.60;99.90;;;4.85;100.00;97629.97;4939838;28;20458;-77
2023/11/07 04:47:40;;;;;;;2.90;1.80;;;5.60;99.90;;;4.78;100.00;97614.69;4947282;28;20446;-78
2023/11/07 04:50:08;;;;;;;1.70;1.60;;;5.60;99.90;;;4.85;100.00;97641.50;4947073;28;20556;-76
2023/11/07 04:52:36;;;;;;;2.53;1.87;;;5.60;99.90;;;4.88;100.00;97632.25;4947033;28;20963;-79
2023/11/07 04:55:03;;;;;;;2.57;1.70;;;5.60;99.90;;;4.85;100.00;97643.34;4944263;29;20453;-79
2023/11/07 04:57:31;;;;;;;2.17;1.67;;;5.60;99.90;;;4.93;100.00;97638.72;4946947;28;20473;-78
2023/11/07 04:59:59;;;;;;;2.70;2.10;;;5.60;99.90;;;4.76;100.00;97638.09;4956933;28;20454;-79
2023/11/07 05:02:26;;;;;;;2.53;1.50;;;5.50;99.90;;;4.81;100.00;97642.91;4947458;29;20456;-80
2023/11/07 05:04:54;;;;;;;2.37;1.60;;;5.60;99.90;;;4.38;100.00;97582.06;4944869;28;20454;-76
2023/11/07 05:07:22;;;;;;;1.83;1.73;;;5.60;99.90;;;4.86;100.00;97643.19;4945689;28;20477;-79
2023/11/07 05:09:52;;;;;;;3.97;2.07;;;5.60;99.90;;;4.94;100.00;97650.28;4955516;28;20445;-77
2023/11/07 05:12:19;;;;;;;1.90;1.50;;;5.60;99.90;;;4.87;100.00;97638.63;4956397;28;20458;-79
2023/11/07 05:14:46;;;;;;;1.40;1.30;;;5.70;99.90;;;4.53;100.00;97569.50;4956431;28;20457;-79
2023/11/07 05:17:15;;;;;;;1.73;1.40;;;5.70;99.90;;;4.93;100.00;97633.38;4956066;28;20821;-77
2023/11/07 05:19:42;;;;;;;2.97;1.60;;;5.80;99.90;;;4.59;100.00;97593.84;4954862;28;20461;-79
2023/11/07 05:22:10;;;;;;;3.20;2.00;;;5.70;99.50;;;4.49;100.00;97583.44;4959865;28;20463;-78
2023/11/07 05:24:37;;;;;;;1.93;1.80;;;5.70;99.80;;;4.97;100.00;97655.25;4953396;28;20451;-79
2023/11/07 05:27:05;;;;;;;1.50;1.40;;;5.70;99.90;;;4.87;100.00;97641.31;4947796;28;20462;-78
2023/11/07 05:29:33;;;;;;;1.70;1.60;;;5.70;99.90;;;5.00;100.00;97660.22;4941056;28;20984;-78
2023/11/07 05:32:00;;;;;;;1.63;1.50;;;5.70;99.90;;;4.90;100.00;97623.03;4945201;28;20492;-80
2023/11/07 05:34:29;;;;;;;2.17;2.00;;;5.80;99.90;;;4.55;100.00;97577.34;4946481;28;20454;-78
2023/11/07 05:36:56;;;;;;;1.97;1.70;;;5.80;99.80;;;4.97;100.00;97639.19;4943486;28;20545;-77
2023/11/07 05:39:27;;;;;;;2.37;1.70;;;5.80;98.70;;;5.00;100.00;97645.97;4945622;28;20468;-78
2023/11/07 05:41:55;;;;;;;2.83;1.80;;;5.70;98.40;;;4.90;100.00;97654.31;4958970;28;20454;-80
2023/11/07 05:44:22;;;;;;;4.63;1.87;;;5.70;98.40;;;4.79;100.00;97653.81;4945276;28;20954;-78
2023/11/07 05:46:50;;;;;;;2.10;1.90;;;5.60;98.50;;;4.68;100.00;97630.19;4946321;28;20458;-79
2023/11/07 05:49:18;;;;;;;1.77;1.67;;;5.60;98.70;;;4.72;100.00;97642.16;4960990;28;20457;-78
2023/11/07 05:51:48;;;;;;;2.97;2.20;;;5.60;98.80;;;4.50;100.00;97618.03;4945792;28;20486;-79
2023/11/07 05:54:17;;;;;;;2.87;1.90;;;5.60;99.20;;;4.77;100.00;97658.50;4944399;29;20459;-79
2023/11/07 05:56:44;;;;;;;1.90;1.57;;;5.60;98.90;;;4.76;100.00;97654.16;4942354;29;20458;-79
2023/11/07 05:59:12;;;;;;;2.20;1.93;;;5.60;99.40;;;4.78;100.00;97660.19;4947354;28;20474;-77
2023/11/07 06:01:39;;;;;;;2.23;2.03;;;5.60;99.30;;;4.60;100.00;97627.59;4947280;28;20548;-78
2023/11/07 06:04:08;;;;;;;4.40;2.07;;;5.60;99.40;;;4.58;100.00;97609.06;4963116;28;20919;-80
2023/11/07 06:06:36;;;;;;;2.07;1.53;;;5.60;99.20;;;4.81;100.00;97651.75;4950373;29;20493;-79
2023/11/07 06:09:06;;;;;;;2.60;2.00;;;5.60;98.80;;;4.69;100.00;97618.47;4947439;28;20473;-78
2023/11/07 06:11:33;;;;;;;3.00;1.87;;;5.70;99.00;;;4.92;100.00;97657.63;4955013;29;20655;-71
2023/11/07 06:14:00;;;;;;;2.93;2.00;;;5.70;98.60;;;5.00;100.00;97668.25;4948910;28;20457;-73
2023/11/07 06:16:28;;;;;;;3.13;2.27;;;5.70;98.50;;;5.06;100.00;97656.78;4945604;28;21223;-73
2023/11/07 06:18:56;;;;;;;2.43;2.17;;;5.90;99.10;;;5.03;100.00;97673.22;4950901;28;20950;-71
2023/11/07 06:21:23;;;;;;;2.77;2.47;;;5.90;97.60;;;5.08;100.00;97667.31;4955093;29;21153;-77
2023/11/07 06:23:50;;;;;;;3.50;2.27;;;5.90;97.60;;;4.76;100.00;97615.88;4962820;28;20458;-69
2023/11/07 06:26:19;;;;;;;3.33;2.20;;;5.90;97.60;;;5.22;100.00;97678.97;4947770;28;20461;-68
2023/11/07 06:28:46;;;;;;;2.67;1.90;;;5.90;97.30;;;5.29;100.00;97669.19;4944003;28;20457;-69
2023/11/07 06:31:13;;;;;;;3.20;2.80;;;6.00;97.00;;;5.23;100.00;97669.94;4944955;28;20489;-69
2023/11/07 06:33:40;;;;;;;4.20;2.37;;;6.00;96.20;;;5.31;100.00;97674.38;4949923;28;20854;-68
2023/11/07 06:36:09;;;;;;;2.10;1.93;;;6.10;96.20;;;5.29;100.00;97673.69;4947669;28;20898;-69
2023/11/07 06:38:37;;;;;;;2.27;2.10;;;6.00;95.60;;;5.26;100.00;97677.59;4948785;28;20526;-68
2023/11/07 06:41:05;;;;;;;2.43;2.23;;;6.00;95.20;;;5.26;100.00;97674.94;4947559;29;20457;-69
2023/11/07 06:43:33;;;;;;;2.33;1.90;;;6.00;95.40;;;5.32;100.00;97674.16;4947429;28;20461;-68
2023/11/07 06:46:01;;;;;;;3.10;2.77;;;6.10;95.70;;;5.35;100.00;97676.44;4945081;29;20462;-69
2023/11/07 06:48:29;;;;;;;2.83;2.47;;;6.10;95.70;;;5.38;100.00;97683.28;4946043;28;20537;-68
2023/11/07 06:50:57;;;;;;;3.17;2.50;;;6.10;95.60;;;5.36;100.00;97678.09;4961220;28;20568;-68
2023/11/07 06:53:25;;;;;;;2.90;2.20;;;6.10;95.20;;;5.39;100.00;97680.44;4948384;28;20466;-68
2023/11/07 06:55:52;;;;;;;9.30;3.27;;;6.10;95.00;;;5.45;100.00;97683.34;4942542;28;20459;-69
2023/11/07 06:58:20;;;;;;;6.27;2.37;;;6.10;95.30;;;5.33;100.00;97685.72;4962754;28;20458;-71
2023/11/07 07:00:48;;;;;;;7.10;2.30;;;6.10;95.00;;;5.36;100.00;97679.97;4948322;28;20462;-69
2023/11/07 07:03:16;;;;;;;9.97;2.90;;;6.20;95.30;;;5.51;100.00;97677.22;4946385;28;21107;-69
2023/11/07 07:05:43;;;;;;;3.90;2.50;;;6.20;95.30;;;5.53;100.00;97680.53;4939870;28;21055;-70
2023/11/07 07:08:10;;;;;;;2.30;2.10;;;6.30;94.60;;;5.59;100.00;97684.31;4943246;28;20470;-74
2023/11/07 07:10:40;;;;;;;2.63;2.40;;;6.40;94.30;;;5.59;100.00;97682.47;4946984;28;20471;-74
2023/11/07 07:13:07;;;;;;;4.03;2.70;;;6.30;94.00;;;5.72;100.00;97688.97;4939032;28;20549;-73
2023/11/07 07:15:36;;;;;;;4.07;2.17;;;6.40;94.10;;;5.79;100.00;97684.50;4946654;28;20466;-75
2023/11/07 07:18:06;;;;;;;1.93;1.83;;;6.50;94.00;;;5.95;99.96;97678.03;4946185;28;21288;-73
2023/11/07 07:20:36;;;;;;;2.50;2.00;;;6.60;93.90;;;5.78;98.97;97658.72;4948398;28;20462;-76
2023/11/07 07:23:05;;;;;;;6.80;2.70;;;6.60;93.20;;;5.76;98.51;97660.75;4946164;28;20950;-74
2023/11/07 07:25:36;;;;;;;7.80;2.20;;;6.60;92.70;;;5.54;98.39;97623.25;4947859;28;20450;-74
2023/11/07 07:28:04;;;;;;;2.53;2.20;;;6.60;92.70;;;5.99;98.21;97683.81;4942013;28;20541;-76
2023/11/07 07:30:32;;;;;;;7.90;2.37;;;6.70;92.60;;;5.80;97.52;97653.97;4946382;28;20470;-77
2023/11/07 07:33:01;;;;;;;4.13;2.10;;;6.70;92.30;;;6.04;97.77;97681.44;4937735;28;20913;-73
2023/11/07 07:35:32;;;;;;;2.07;1.90;;;6.80;92.30;;;6.22;96.82;97684.47;4941965;28;20462;-72
2023/11/07 07:38:03;;;;;;;2.33;1.90;;;6.90;92.30;;;6.17;96.41;97681.53;4947859;28;20948;-80
2023/11/07 07:40:31;;;;;;;2.93;2.10;;;6.90;92.00;;;5.80;96.56;97617.28;4945323;28;20517;-85
2023/11/07 07:43:08;;;;;;;3.20;2.00;;;7.00;92.00;;;6.33;95.95;97695.69;4953634;28;20521;-84
2023/11/07 07:45:38;;;;;;;2.93;2.20;;;7.00;91.80;;;6.36;95.33;97689.91;4948505;28;20449;-74
2023/11/07 07:48:07;;;;;;;3.90;1.93;;;7.10;91.30;;;6.65;95.37;97691.53;4957105;28;20546;-75
2023/11/07 07:50:35;;;;;;;4.33;2.57;;;7.30;91.60;;;6.63;93.62;97696.25;4939433;28;20460;-75
2023/11/07 07:53:06;;;;;;;4.20;2.30;;;7.30;90.80;;;6.54;93.62;97677.84;4959906;28;20969;-73
2023/11/07 07:55:33;;;;;;;5.30;2.73;;;7.30;90.50;;;6.69;94.06;97689.28;4940319;28;20454;-78
2023/11/07 07:58:02;;;;;;;2.50;2.30;;;7.40;90.60;;;6.87;92.79;97690.59;4936481;28;20463;-74
2023/11/07 08:00:30;;;;;;;3.27;2.73;;;7.50;90.30;;;6.92;92.38;97698.91;4957353;28;20450;-76
2023/11/07 08:02:58;;;;;;;2.10;1.60;;;7.60;90.10;;;6.96;91.58;97692.09;4945575;28;20473;-76
2023/11/07 08:05:28;;;;;;;3.80;1.60;;;7.70;89.70;;;7.09;90.84;97691.31;4947229;28;20465;-74
2023/11/07 08:07:57;;;;;;;2.47;1.90;;;7.80;89.10;;;7.42;90.76;97697.84;4942469;28;20458;-76
2023/11/07 08:10:26;;;;;;;2.80;2.60;;;8.00;89.40;;;7.42;89.04;97695.16;4946774;28;20450;-75
2023/11/07 08:12:55;;;;;;;2.97;2.30;;;8.20;88.10;;;7.57;89.02;97703.03;4945691;28;20483;-75
2023/11/07 08:15:25;;;;;;;2.50;2.30;;;8.30;88.00;;;7.64;88.45;97707.38;4941617;28;20520;-74
2023/11/07 08:17:52;;;;;;;2.60;2.17;;;8.40;87.60;;;8.01;87.51;97701.63;4944116;28;20801;-73
2023/11/07 08:20:20;;;;;;;3.90;1.90;;;8.60;87.60;;;8.29;85.20;97708.66;4945875;28;20468;-77
2023/11/07 08:22:48;;;;;;;2.47;2.13;;;8.80;86.80;;;8.54;84.21;97704.50;4947789;28;20452;-76
2023/11/07 08:25:18;;;;;;;3.03;2.43;;;9.10;86.30;;;8.61;84.45;97710.72;4945699;28;21116;-74
2023/11/07 08:27:48;;;;;;;4.47;3.20;;;9.30;85.70;;;8.49;84.20;97705.09;4945375;28;20463;-73
2023/11/07 08:30:22;;;;;;;2.30;2.10;;;9.20;85.30;;;8.77;82.08;97704.06;4941675;28;20476;-74
2023/11/07 08:32:50;;;;;;;2.00;1.70;;;9.40;84.80;;;8.87;81.83;97709.00;4943625;28;20562;-76
2023/11/07 08:35:18;;;;;;;2.47;2.27;;;9.50;84.40;;;9.19;80.75;97711.81;4945113;28;20455;-74
2023/11/07 08:37:47;;;;;;;2.03;1.53;;;9.80;83.90;;;9.39;79.86;97710.88;4946734;28;20571;-73
2023/11/07 08:40:20;;;;;;;3.03;2.50;;;10.00;82.60;;;9.53;79.95;97703.53;4945404;28;20477;-72
2023/11/07 08:42:50;;;;;;;2.17;2.00;;;10.10;82.40;;;9.31;78.24;97703.84;4953513;28;20447;-72
2023/11/07 08:45:19;;;;;;;3.40;2.00;;;10.10;81.50;;;9.15;80.62;97686.28;4943550;28;20491;-74
2023/11/07 08:47:48;;;;;;;4.90;1.70;;;10.00;82.10;;;9.45;79.54;97700.06;4944382;28;20627;-73
2023/11/07 08:50:18;;;;;;;2.30;1.50;;;10.10;82.00;;;9.50;77.08;97705.63;4959494;28;20461;-72
2023/11/07 08:52:47;;;;;;;2.03;1.87;;;10.20;80.70;;;9.82;77.94;97707.50;4943460;28;20484;-72
2023/11/07 08:55:16;;;;;;;3.17;1.87;;;10.30;81.70;;;10.00;76.19;97684.34;4945241;28;20514;-74
2023/11/07 08:57:44;;;;;;;1.80;1.50;;;10.50;81.00;;;10.06;75.80;97710.44;4949799;28;20463;-74
2023/11/07 09:00:21;;;;;;;3.67;1.57;;;10.70;80.60;;;10.05;75.57;97709.63;4964558;28;20496;-71
2023/11/07 09:02:49;;;;;;;3.07;1.80;;;10.70;80.30;;;10.10;74.46;97700.88;4964207;28;20465;-73
2023/11/07 09:05:17;;;;;;;5.90;4.20;;;10.80;79.60;;;9.77;74.67;97707.31;4959680;28;20458;-78
2023/11/07 09:07:45;;;;;;;6.10;4.37;;;10.60;79.10;;;10.21;74.61;97697.44;4946012;28;20537;-75
2023/11/07 09:10:12;;;;;;;4.60;1.97;;;10.70;80.00;;;10.16;73.88;97710.78;4954774;28;20476;-73
2023/11/07 09:12:42;;;;;;;2.27;2.07;;;10.80;79.10;;;10.36;73.10;97696.28;4946747;28;20497;-74
2023/11/07 09:15:10;;;;;;;6.07;2.90;;;10.90;78.70;;;10.54;73.42;97705.47;4949140;28;20460;-73
2023/11/07 09:17:39;;;;;;;5.10;2.90;;;11.10;79.00;;;10.46;71.62;97693.94;4951668;28;20560;-75
2023/11/07 09:20:11;;;;;;;4.03;3.13;;;11.10;77.80;;;10.40;71.91;97704.75;4945014;28;20816;-73
2023/11/07 09:22:40;;;;;;;1.90;1.33;;;11.00;77.60;;;10.30;70.72;97699.88;4944732;29;20972;-73
2023/11/07 09:25:09;;;;;;;1.97;1.40;;;11.00;76.90;;;10.68;70.84;97700.78;4946043;28;20755;-73
2023/11/07 09:27:37;;;;;;;1.40;1.30;;;11.20;77.10;;;11.25;69.28;97702.44;4950228;28;20644;-72
2023/11/07 09:30:09;;;;;;;4.00;2.60;;;11.50;77.30;;;11.72;66.37;97699.91;4946099;28;20458;-73
2023/11/07 09:32:36;;;;;;;3.83;2.73;;;12.00;75.90;;;11.47;65.31;97698.16;4941931;29;20630;-73
2023/11/07 09:35:06;;;;;;;2.07;1.60;;;12.10;74.00;;;11.53;65.62;97695.63;4944212;28;20455;-73
2023/11/07 09:37:36;;;;;;;4.40;1.40;;;12.10;74.00;;;11.70;65.40;97695.78;4951685;28;20451;-74
2023/11/07 09:40:09;;;;;;;2.73;2.47;;;12.20;73.90;;;11.42;65.87;97645.81;4942038;28;20916;-72
2023/11/07 09:42:36;;;;;;;2.57;2.00;;;12.20;74.10;;;11.68;65.88;97698.72;4947095;28;20452;-74
2023/11/07 09:45:14;;;;;;;7.47;3.87;;;12.30;73.70;;;11.87;63.83;97696.75;4947196;28;20896;-72
2023/11/07 09:47:45;;;;;;;1.87;1.53;;;12.30;73.00;;;11.57;63.93;97691.38;4947399;28;20455;-73
2023/11/07 09:50:13;;;;;;;1.53;1.13;;;12.30;71.90;;;11.60;63.09;97697.19;4953351;28;20548;-74
2023/11/07 09:52:44;;;;;;;1.90;1.57;;;12.20;71.10;;;11.59;63.62;97703.63;4941273;28;20474;-72
2023/11/07 09:55:14;;;;;;;2.50;1.90;;;12.10;71.30;;;11.71;63.42;97694.72;4943079;28;20467;-77
2023/11/07 09:57:44;;;;;;;3.53;2.30;;;12.20;71.60;;;11.72;62.71;97699.91;4945483;28;20805;-75
2023/11/07 10:00:18;;;;;;;1.50;1.20;;;12.30;70.80;;;11.56;61.98;97701.38;4944244;28;20463;-75
2023/11/07 10:02:46;;;;;;;2.50;1.20;;;12.30;70.00;;;11.32;63.66;97706.69;4945298;28;20833;-77
2023/11/07 10:05:14;;;;;;;2.47;1.30;;;12.10;70.40;;;11.54;62.60;97702.69;4945963;28;20463;-72
2023/11/07 10:07:41;;;;;;;0.90;0.80;;;12.10;70.10;;;11.47;62.30;97698.16;4947594;28;20457;-78
2023/11/07 10:10:10;;;;;;;6.70;2.93;;;12.10;69.50;;;11.60;62.27;97697.19;4943369;28;20478;-75
2023/11/07 10:12:42;;;;;;;4.13;1.43;;;12.10;69.60;;;11.59;62.04;97687.38;4948841;28;20480;-76
2023/11/07 10:15:19;;;;;;;2.50;1.17;;;12.20;69.50;;;11.24;63.59;97698.88;4947360;28;20455;-76
2023/11/07 10:17:59;;;;;;;3.23;1.47;;;12.00;69.90;;;11.14;62.96;97688.63;4950260;29;20535;-77
2023/11/07 10:20:27;;;;;;;1.13;1.00;;;11.80;69.30;;;11.26;62.47;97695.97;4950718;28;20517;-78
2023/11/07 10:22:55;;;;;;;1.70;1.40;;;11.80;69.40;;;11.53;62.23;97685.59;4953604;28;20517;-74
2023/11/07 10:25:38;;;;;;;3.00;0.90;;;12.00;69.50;;;11.51;61.88;97670.66;4949575;28;20959;-76
2023/11/07 10:28:07;;;;;;;2.70;0.90;;;12.10;69.50;;;11.33;62.45;97685.88;4948150;28;21052;-75
2023/11/07 10:30:39;;;;;;;1.30;1.00;;;12.00;69.20;;;11.22;63.06;97671.25;4965013;28;21264;-75